createdAt,value
2022-11-01T00:00:01.613Z,22.38
2022-11-01T00:03:05.470Z,21.95
2022-11-01T00:06:07.921Z,22.50
2022-11-01T00:09:10.536Z,21.42
2022-11-01T00:12:12.977Z,19.08
2022-11-01T00:15:15.475Z,18.40
2022-11-01T00:18:19.384Z,19.98
2022-11-01T00:21:21.929Z,18.40
2022-11-01T00:24:24.966Z,18.27
2022-11-01T00:27:27.365Z,23.15
2022-11-01T00:30:29.839Z,20.25
2022-11-01T00:33:33.701Z,18.40
2022-11-01T00:36:36.749Z,19.63
2022-11-01T00:39:39.208Z,20.83
2022-11-01T00:42:41.696Z,24.38
2022-11-01T00:45:45.123Z,18.90
2022-11-01T00:48:48.933Z,19.20
2022-11-01T00:51:52.090Z,19.00
2022-11-01T00:54:55.253Z,21.80
2022-11-01T00:57:57.686Z,20.75
2022-11-01T01:01:00.217Z,19.73
2022-11-01T01:04:04.192Z,20.02
2022-11-01T01:07:06.636Z,19.52
2022-11-01T01:10:09.860Z,19.33
2022-11-01T01:13:13.628Z,22.42
2022-11-01T01:16:16.091Z,29.40
2022-11-01T01:19:19.941Z,20.60
2022-11-01T01:22:22.347Z,24.70
2022-11-01T01:25:25.996Z,26.77
2022-11-01T01:28:37.636Z,23.33
2022-11-01T01:31:42.692Z,20.77
2022-11-01T01:34:46.466Z,21.30
2022-11-01T01:37:49.063Z,22.55
2022-11-01T01:40:51.525Z,23.75
2022-11-01T01:43:54.077Z,26.42
2022-11-01T01:46:56.532Z,24.73
2022-11-01T01:50:02.941Z,24.05
2022-11-01T01:53:07.256Z,25.63
2022-11-01T01:56:13.347Z,22.20
2022-11-01T01:59:15.870Z,31.13
2022-11-01T02:02:18.785Z,29.60
2022-11-01T02:05:27.175Z,30.33
2022-11-01T02:08:30.244Z,25.98
2022-11-01T02:11:32.837Z,24.88
2022-11-01T02:14:35.650Z,29.00
2022-11-01T02:17:40.134Z,27.05
2022-11-01T02:21:03.547Z,29.75
2022-11-01T02:24:19.803Z,28.50
2022-11-01T02:27:26.286Z,25.95
2022-11-01T02:30:34.051Z,32.15
2022-11-01T02:33:40.773Z,30.55
2022-11-01T02:36:45.420Z,28.60
2022-11-01T02:39:49.716Z,31.15
2022-11-01T02:42:54.623Z,29.73
2022-11-01T02:45:58.126Z,24.35
2022-11-01T02:49:02.006Z,26.90
2022-11-01T02:52:05.880Z,29.15
2022-11-01T02:55:29.350Z,26.45
2022-11-01T02:58:32.323Z,27.83
2022-11-01T03:01:36.086Z,31.75
2022-11-01T03:04:39.992Z,33.95
2022-11-01T03:07:43.960Z,36.70
2022-11-01T03:10:50.948Z,31.50
2022-11-01T03:14:00.486Z,30.50
2022-11-01T03:17:06.781Z,32.08
2022-11-01T03:20:16.510Z,36.90
2022-11-01T03:23:21.026Z,28.33
2022-11-01T03:26:25.782Z,38.22
2022-11-01T03:29:30.433Z,40.10
2022-11-01T03:32:34.069Z,39.28
2022-11-01T03:35:39.460Z,38.40
2022-11-01T03:38:50.835Z,34.08
2022-11-01T03:41:56.231Z,35.20
2022-11-01T03:45:00.007Z,35.50
2022-11-01T03:48:02.850Z,34.97
2022-11-01T03:51:07.831Z,32.17
2022-11-01T03:54:12.131Z,29.25
2022-11-01T03:57:14.658Z,29.98
2022-11-01T04:00:18.252Z,33.17
2022-11-01T04:03:20.799Z,26.95
2022-11-01T04:06:24.637Z,30.52
2022-11-01T04:09:27.155Z,35.03
2022-11-01T04:12:32.676Z,30.10
2022-11-01T04:15:53.580Z,34.65
2022-11-01T04:19:13.734Z,32.88
2022-11-01T04:22:19.438Z,33.60
2022-11-01T04:25:24.549Z,31.15
2022-11-01T04:28:27.270Z,41.15
2022-11-01T04:31:30.685Z,28.08
2022-11-01T04:34:45.236Z,33.85
2022-11-01T04:37:48.959Z,36.70
2022-11-01T04:40:53.327Z,35.20
2022-11-01T04:43:56.951Z,35.20
2022-11-01T04:46:59.361Z,38.72
2022-11-01T04:50:02.129Z,41.80
2022-11-01T04:53:06.069Z,35.53
2022-11-01T04:56:09.801Z,29.90
2022-11-01T04:59:12.278Z,29.55
2022-11-01T05:02:17.225Z,31.75
2022-11-01T05:05:20.008Z,41.20
2022-11-01T05:08:26.344Z,39.72
2022-11-01T05:11:28.875Z,40.47
2022-11-01T05:14:31.397Z,36.05
2022-11-01T05:17:33.829Z,30.30
2022-11-01T05:20:36.301Z,35.40
2022-11-01T05:23:40.177Z,32.85
2022-11-01T05:26:42.630Z,32.42
2022-11-01T05:29:45.036Z,36.45
2022-11-01T05:32:47.477Z,30.73
2022-11-01T05:35:49.886Z,39.47
2022-11-01T05:38:56.409Z,29.00
2022-11-01T05:42:01.756Z,43.08
2022-11-01T05:45:06.044Z,32.15
2022-11-01T05:48:08.489Z,34.67
2022-11-01T05:51:11.526Z,32.70
2022-11-01T05:54:15.434Z,35.65
2022-11-01T05:57:17.850Z,32.75
2022-11-01T06:00:20.366Z,31.48
2022-11-01T06:03:22.968Z,34.22
2022-11-01T06:06:25.424Z,33.00
2022-11-01T06:09:29.327Z,37.92
2022-11-01T06:12:32.771Z,34.55
2022-11-01T06:15:38.725Z,37.40
2022-11-01T06:18:42.250Z,30.50
2022-11-01T06:21:44.713Z,33.50
2022-11-01T06:24:48.487Z,28.50
2022-11-01T06:27:51.000Z,29.23
2022-11-01T06:30:53.507Z,31.40
2022-11-01T06:33:55.953Z,34.00
2022-11-01T06:36:59.211Z,32.38
2022-11-01T06:40:03.089Z,33.90
2022-11-01T06:43:06.467Z,40.10
2022-11-01T06:46:09.069Z,32.10
2022-11-01T06:49:16.315Z,31.58
2022-11-01T06:52:21.467Z,32.63
2022-11-01T06:55:25.261Z,30.50
2022-11-01T06:58:27.724Z,34.95
2022-11-01T07:01:30.281Z,35.75
2022-11-01T07:04:33.043Z,28.10
2022-11-01T07:07:36.473Z,34.03
2022-11-01T07:10:41.154Z,29.25
2022-11-01T07:13:43.685Z,30.77
2022-11-01T07:16:46.239Z,30.73
2022-11-01T07:19:48.733Z,30.88
2022-11-01T07:22:57.777Z,31.38
2022-11-01T07:26:01.592Z,30.02
2022-11-01T07:29:04.219Z,23.90
2022-11-01T07:32:06.883Z,27.60
2022-11-01T07:35:09.796Z,28.33
2022-11-01T07:38:13.385Z,28.95
2022-11-01T07:41:17.797Z,26.45
2022-11-01T07:44:20.426Z,26.90
2022-11-01T07:47:22.968Z,32.10
2022-11-01T07:50:25.450Z,29.55
2022-11-01T07:53:27.913Z,25.10
2022-11-01T07:56:31.926Z,24.27
2022-11-01T07:59:34.458Z,21.77
2022-11-01T08:02:39.336Z,27.88
2022-11-01T08:05:42.580Z,24.75
2022-11-01T08:08:45.935Z,26.70
2022-11-01T08:11:49.762Z,23.88
2022-11-01T08:14:52.336Z,32.63
2022-11-01T08:18:00.004Z,22.77
2022-11-01T08:21:02.686Z,26.95
2022-11-01T08:24:05.493Z,24.15
2022-11-01T08:27:11.665Z,19.38
2022-11-01T08:30:15.528Z,24.70
2022-11-01T08:33:26.705Z,25.88
2022-11-01T08:36:31.907Z,19.95
2022-11-01T08:39:48.517Z,19.05
2022-11-01T08:42:58.303Z,25.75
2022-11-01T08:46:00.763Z,21.30
2022-11-01T08:49:03.245Z,19.02
2022-11-01T08:52:06.018Z,17.58
2022-11-01T08:55:09.309Z,18.58
2022-11-01T08:58:43.618Z,21.75
2022-11-01T09:01:47.731Z,18.38
2022-11-01T09:05:04.289Z,14.10
2022-11-01T09:08:17.491Z,16.05
2022-11-01T09:11:20.659Z,16.63
2022-11-01T09:14:36.695Z,14.98
2022-11-01T09:17:51.394Z,11.13
2022-11-01T09:21:04.055Z,9.88
2022-11-01T09:24:23.115Z,14.32
2022-11-01T09:27:25.564Z,13.57
2022-11-01T09:30:28.641Z,11.77
2022-11-01T09:33:32.940Z,10.13
2022-11-01T09:36:37.493Z,8.80
2022-11-01T09:39:40.006Z,14.40
2022-11-01T09:42:44.611Z,7.40
2022-11-01T09:45:47.167Z,13.82
2022-11-01T09:48:51.167Z,13.50
2022-11-01T09:51:53.897Z,12.95
2022-11-01T09:54:56.496Z,12.35
2022-11-01T09:58:01.645Z,7.28
2022-11-01T10:01:14.892Z,6.15
2022-11-01T10:04:35.041Z,8.27
2022-11-01T10:07:48.417Z,8.43
2022-11-01T10:10:53.873Z,7.47
2022-11-01T10:14:00.761Z,5.50
2022-11-01T10:17:40.890Z,5.47
2022-11-01T10:20:59.117Z,7.18
2022-11-01T10:24:03.673Z,4.82
2022-11-01T10:27:16.031Z,7.22
2022-11-01T10:30:18.967Z,5.47
2022-11-01T10:33:25.673Z,5.72
2022-11-01T10:36:35.267Z,7.72
2022-11-01T10:39:59.160Z,8.40
2022-11-01T10:43:08.725Z,4.43
2022-11-01T10:46:14.175Z,5.30
2022-11-01T10:49:20.503Z,4.22
2022-11-01T10:52:26.391Z,8.90
2022-11-01T10:55:34.831Z,5.63
2022-11-01T10:58:44.668Z,5.30
2022-11-01T11:02:21.059Z,6.28
2022-11-01T11:05:24.772Z,10.07
2022-11-01T11:08:38.266Z,5.68
2022-11-01T11:11:52.776Z,7.53
2022-11-01T11:14:57.670Z,5.60
2022-11-01T11:18:03.374Z,5.13
2022-11-01T11:21:08.503Z,2.38
2022-11-01T11:24:19.509Z,5.30
2022-11-01T11:27:22.872Z,1.25
2022-11-01T11:30:29.142Z,1.92
2022-11-01T11:33:31.626Z,3.28
2022-11-01T11:36:36.563Z,2.20
2022-11-01T11:40:00.366Z,1.90
2022-11-01T11:43:20.524Z,7.45
2022-11-01T11:46:26.157Z,2.33
2022-11-01T11:49:28.959Z,3.80
2022-11-01T11:52:38.403Z,7.95
2022-11-01T11:55:43.990Z,11.48
2022-11-01T11:58:48.840Z,2.70
2022-11-01T12:01:56.068Z,5.75
2022-11-01T12:05:00.280Z,4.07
2022-11-01T12:08:03.407Z,1.95
2022-11-01T12:11:07.843Z,5.47
2022-11-01T12:14:40.065Z,5.47
2022-11-01T12:17:50.984Z,2.63
2022-11-01T12:20:55.170Z,10.32
2022-11-01T12:24:11.516Z,1.58
2022-11-01T12:27:17.033Z,3.30
2022-11-01T12:30:27.515Z,4.20
2022-11-01T12:33:31.954Z,3.38
2022-11-01T12:36:42.793Z,3.80
2022-11-01T12:39:51.929Z,2.45
2022-11-01T12:42:57.707Z,4.32
2022-11-01T12:46:09.098Z,3.92
2022-11-01T12:49:18.435Z,5.10
2022-11-01T12:52:29.246Z,5.30
2022-11-01T12:55:33.234Z,3.10
2022-11-01T12:58:42.496Z,4.10
2022-11-01T13:01:52.528Z,6.70
2022-11-01T13:04:58.258Z,4.85
2022-11-01T13:08:08.575Z,3.20
2022-11-01T13:11:15.477Z,4.35
2022-11-01T13:14:34.097Z,4.30
2022-11-01T13:17:41.099Z,12.20
2022-11-01T13:20:48.336Z,4.32
2022-11-01T13:23:53.822Z,8.15
2022-11-01T13:26:58.105Z,8.43
2022-11-01T13:30:03.517Z,6.65
2022-11-01T13:33:11.781Z,6.00
2022-11-01T13:36:16.466Z,10.50
2022-11-01T13:39:25.449Z,4.28
2022-11-01T13:42:31.341Z,8.68
2022-11-01T13:45:51.210Z,5.90
2022-11-01T13:49:12.390Z,6.57
2022-11-01T13:52:22.313Z,8.48
2022-11-01T13:55:29.081Z,6.10
2022-11-01T13:58:32.597Z,9.73
2022-11-01T14:01:39.876Z,3.92
2022-11-01T14:04:56.499Z,3.58
2022-11-01T14:08:45.780Z,6.07
2022-11-01T14:11:49.675Z,8.43
2022-11-01T14:15:09.435Z,2.97
2022-11-01T14:18:20.545Z,4.70
2022-11-01T14:21:31.346Z,3.75
2022-11-01T14:24:35.424Z,6.57
2022-11-01T14:27:39.044Z,5.28
2022-11-01T14:30:43.259Z,4.97
2022-11-01T14:33:48.237Z,5.00
2022-11-01T14:36:52.252Z,5.65
2022-11-01T14:40:04.071Z,4.03
2022-11-01T14:43:12.012Z,3.78
2022-11-01T14:46:17.037Z,4.68
2022-11-01T14:49:25.784Z,5.40
2022-11-01T14:52:31.988Z,3.03
2022-11-01T14:55:36.252Z,5.47
2022-11-01T14:58:38.781Z,3.47
2022-11-01T15:01:44.297Z,4.38
2022-11-01T15:04:49.050Z,8.45
2022-11-01T15:07:52.861Z,5.63
2022-11-01T15:10:56.517Z,7.82
2022-11-01T15:13:59.877Z,8.65
2022-11-01T15:17:02.391Z,13.32
2022-11-01T15:20:12.950Z,4.60
2022-11-01T15:23:18.886Z,5.20
2022-11-01T15:26:22.510Z,8.50
2022-11-01T15:29:25.817Z,6.57
2022-11-01T15:32:30.271Z,6.28
2022-11-01T15:35:34.318Z,8.70
2022-11-01T15:38:49.248Z,7.93
2022-11-01T15:41:52.069Z,3.90
2022-11-01T15:44:54.617Z,3.38
2022-11-01T15:47:59.750Z,7.78
2022-11-01T15:51:05.906Z,4.88
2022-11-01T15:54:14.569Z,4.45
2022-11-01T15:57:19.570Z,6.45
2022-11-01T16:00:22.972Z,4.40
2022-11-01T16:03:34.341Z,4.35
2022-11-01T16:06:41.056Z,11.70
2022-11-01T16:09:45.590Z,7.57
2022-11-01T16:13:00.857Z,11.40
2022-11-01T16:16:05.988Z,4.78
2022-11-01T16:19:23.956Z,9.48
2022-11-01T16:22:29.896Z,7.03
2022-11-01T16:25:33.089Z,12.40
2022-11-01T16:28:40.342Z,4.57
2022-11-01T16:31:42.934Z,6.95
2022-11-01T16:34:45.732Z,9.05
2022-11-01T16:37:50.138Z,7.75
2022-11-01T16:40:55.643Z,7.15
2022-11-01T16:44:00.323Z,9.20
2022-11-01T16:47:02.941Z,5.95
2022-11-01T16:50:05.864Z,11.40
2022-11-01T16:53:11.367Z,7.38
2022-11-01T16:56:35.565Z,10.60
2022-11-01T16:59:39.054Z,6.03
2022-11-01T17:02:42.703Z,8.60
2022-11-01T17:05:45.452Z,10.98
2022-11-01T17:08:49.247Z,5.68
2022-11-01T17:11:54.305Z,9.40
2022-11-01T17:14:56.962Z,5.50
2022-11-01T17:18:01.815Z,3.88
2022-11-01T17:21:06.779Z,12.00
2022-11-01T17:24:11.074Z,12.35
2022-11-01T17:27:13.621Z,8.10
2022-11-01T17:30:16.136Z,13.10
2022-11-01T17:33:18.609Z,8.57
2022-11-01T17:36:21.127Z,6.07
2022-11-01T17:39:25.626Z,10.18
2022-11-01T17:42:28.283Z,19.45
2022-11-01T17:45:30.781Z,33.63
2022-11-01T17:48:33.234Z,24.88
2022-11-01T17:51:35.705Z,13.38
2022-11-01T17:54:39.775Z,17.98
2022-11-01T17:57:43.363Z,9.30
2022-11-01T18:00:45.813Z,11.55
2022-11-01T18:03:48.679Z,7.30
2022-11-01T18:06:51.897Z,3.75
2022-11-01T18:09:56.339Z,6.03
2022-11-01T18:13:07.723Z,11.93
2022-11-01T18:16:16.793Z,7.95
2022-11-01T18:19:26.515Z,7.50
2022-11-01T18:22:32.466Z,4.65
2022-11-01T18:25:41.252Z,8.35
2022-11-01T18:28:44.226Z,9.38
2022-11-01T18:31:47.852Z,11.23
2022-11-01T18:34:52.539Z,3.97
2022-11-01T18:38:04.488Z,7.45
2022-11-01T18:41:13.120Z,8.90
2022-11-01T18:44:15.895Z,8.48
2022-11-01T18:47:21.097Z,7.85
2022-11-01T18:50:25.948Z,14.82
2022-11-01T18:53:29.120Z,9.52
2022-11-01T18:56:33.546Z,11.25
2022-11-01T18:59:38.774Z,10.00
2022-11-01T19:02:41.311Z,15.45
2022-11-01T19:05:43.921Z,15.43
2022-11-01T19:08:49.780Z,8.77
2022-11-01T19:11:55.221Z,6.03
2022-11-01T19:14:59.970Z,5.93
2022-11-01T19:18:07.753Z,6.13
2022-11-01T19:21:14.894Z,8.57
2022-11-01T19:24:27.111Z,11.63
2022-11-01T19:27:31.001Z,9.30
2022-11-01T19:30:34.171Z,4.80
2022-11-01T19:33:39.917Z,14.00
2022-11-01T19:36:43.420Z,11.27
2022-11-01T19:39:45.947Z,9.05
2022-11-01T19:42:49.778Z,9.27
2022-11-01T19:45:53.193Z,5.13
2022-11-01T19:48:55.823Z,6.97
2022-11-01T19:52:02.542Z,10.98
2022-11-01T19:55:24.788Z,4.55
2022-11-01T19:58:37.032Z,10.18
2022-11-01T20:01:45.164Z,8.20
2022-11-01T20:04:53.092Z,6.15
2022-11-01T20:08:02.408Z,4.85
2022-11-01T20:11:08.113Z,11.32
2022-11-01T20:14:13.016Z,3.85
2022-11-01T20:17:15.653Z,9.55
2022-11-01T20:20:18.333Z,5.90
2022-11-01T20:23:26.235Z,10.50
2022-11-01T20:26:29.483Z,7.50
2022-11-01T20:29:33.433Z,5.43
2022-11-01T20:32:37.363Z,5.53
2022-11-01T20:35:55.088Z,9.93
2022-11-01T20:39:26.214Z,6.28
2022-11-01T20:42:28.668Z,5.00
2022-11-01T20:45:34.323Z,5.20
2022-11-01T20:48:36.820Z,8.80
2022-11-01T20:51:40.456Z,5.13
2022-11-01T20:54:42.932Z,4.32
2022-11-01T20:57:45.739Z,6.25
2022-11-01T21:00:51.409Z,8.13
2022-11-01T21:03:54.821Z,8.88
2022-11-01T21:06:57.920Z,10.43
2022-11-01T21:10:00.605Z,6.35
2022-11-01T21:13:04.214Z,5.22
2022-11-01T21:16:16.044Z,5.70
2022-11-01T21:19:20.940Z,7.68
2022-11-01T21:22:24.851Z,8.23
2022-11-01T21:25:27.478Z,5.68
2022-11-01T21:28:33.292Z,9.40
2022-11-01T21:31:38.665Z,11.52
2022-11-01T21:34:43.103Z,6.55
2022-11-01T21:37:48.816Z,9.70
2022-11-01T21:40:51.279Z,6.75
2022-11-01T21:43:53.924Z,7.85
2022-11-01T21:47:12.439Z,4.45
2022-11-01T21:50:15.176Z,6.35
2022-11-01T21:53:17.664Z,3.78
2022-11-01T21:56:20.549Z,9.30
2022-11-01T21:59:23.555Z,3.50
2022-11-01T22:02:32.253Z,6.40
2022-11-01T22:05:34.744Z,13.45
2022-11-01T22:08:37.518Z,6.82
2022-11-01T22:11:40.674Z,6.15
2022-11-01T22:14:43.341Z,7.30
2022-11-01T22:17:47.137Z,7.80
2022-11-01T22:20:49.730Z,4.20
2022-11-01T22:23:52.328Z,6.75
2022-11-01T22:26:57.289Z,3.85
2022-11-01T22:30:00.151Z,5.97
2022-11-01T22:33:05.840Z,2.03
2022-11-01T22:36:17.625Z,4.30
2022-11-01T22:39:21.838Z,8.95
2022-11-01T22:42:38.179Z,2.97
2022-11-01T22:45:41.757Z,15.20
2022-11-01T22:48:45.541Z,4.70
2022-11-01T22:51:49.144Z,5.53
2022-11-01T22:54:53.316Z,5.32
2022-11-01T22:57:58.757Z,2.22
2022-11-01T23:01:01.787Z,11.55
2022-11-01T23:04:17.580Z,9.20
2022-11-01T23:07:23.685Z,6.35
2022-11-01T23:10:30.208Z,2.83
2022-11-01T23:13:50.999Z,5.22
2022-11-01T23:16:53.448Z,8.60
2022-11-01T23:19:59.088Z,7.32
2022-11-01T23:23:02.223Z,4.95
2022-11-01T23:26:05.312Z,3.50
2022-11-01T23:29:08.003Z,1.92
2022-11-01T23:32:11.269Z,3.03
2022-11-01T23:35:18.458Z,5.65
2022-11-01T23:38:22.285Z,6.00
2022-11-01T23:41:26.382Z,6.43
2022-11-01T23:44:29.714Z,8.45
2022-11-01T23:47:36.209Z,4.97
2022-11-01T23:50:39.956Z,8.00
2022-11-01T23:53:43.353Z,10.57
2022-11-01T23:56:45.773Z,2.78
2022-11-01T23:59:48.784Z,1.77
